Time;durP1;ratioP1;P1;durP2;ratioP2;P2;SDS_P1;SDS_P2;PMS_P1;PMS_P2;Temp;Humidity;BMP_temperature;BMP_pressure;BME280_temperature;BME280_humidity;BME280_pressure;Samples;Min_cycle;Max_cycle;Signal;HPM_P1;HPM_P2
2021/08/30 00:18:51;;;;;;;16.52;6.60;;;;;;;;;;4225820;28;20217;-64
2021/08/30 00:21:17;;;;;;;12.68;6.60;;;;;;;;;;4219833;34;20105;-64
2021/08/30 00:23:43;;;;;;;11.45;5.60;;;;;;;;;;4219805;34;20125;-64
2021/08/30 00:26:09;;;;;;;12.93;5.65;;;;;;;;;;4219895;34;20213;-64
2021/08/30 00:28:35;;;;;;;9.32;4.68;;;;;;;;;;4220151;34;20501;-64
2021/08/30 00:31:01;;;;;;;16.27;5.82;;;;;;;;;;4219985;34;20137;-65
2021/08/30 00:33:27;;;;;;;14.73;4.95;;;;;;;;;;4219652;34;20108;-64
2021/08/30 00:35:53;;;;;;;9.05;5.28;;;;;;;;;;4206970;34;20213;-65
2021/08/30 00:38:18;;;;;;;10.02;5.53;;;;;;;;;;4205773;34;20132;-65
2021/08/30 00:40:44;;;;;;;8.80;4.78;;;;;;;;;;4206009;34;20549;-66
2021/08/30 00:43:10;;;;;;;9.50;5.07;;;;;;;;;;4205852;34;20550;-64
2021/08/30 00:45:37;;;;;;;17.83;6.72;;;;;;;;;;4193224;34;20134;-65
2021/08/30 00:48:03;;;;;;;16.15;6.82;;;;;;;;;;4205685;34;20113;-65
2021/08/30 00:50:29;;;;;;;13.40;7.50;;;;;;;;;;4205545;34;20121;-65
2021/08/30 00:52:55;;;;;;;12.98;6.68;;;;;;;;;;4218676;34;20478;-65
2021/08/30 00:55:21;;;;;;;13.80;6.95;;;;;;;;;;4206824;34;20628;-65
2021/08/30 00:57:47;;;;;;;14.27;7.85;;;;;;;;;;4206617;34;20117;-65
2021/08/30 01:00:14;;;;;;;11.73;7.82;;;;;;;;;;4219675;34;20121;-65
2021/08/30 01:02:40;;;;;;;15.68;7.75;;;;;;;;;;4206826;34;20106;-65
2021/08/30 01:05:08;;;;;;;20.90;8.52;;;;;;;;;;4219664;34;20217;-66
2021/08/30 01:07:38;;;;;;;20.15;8.48;;;;;;;;;;4206504;34;20113;-65
2021/08/30 01:10:07;;;;;;;17.60;8.05;;;;;;;;;;4219611;34;20120;-65
2021/08/30 01:12:35;;;;;;;22.02;8.27;;;;;;;;;;4206689;34;20116;-64
2021/08/30 01:15:06;;;;;;;17.48;7.60;;;;;;;;;;4206721;34;20101;-64
2021/08/30 01:17:34;;;;;;;13.65;7.35;;;;;;;;;;4206481;34;20130;-65
2021/08/30 01:20:09;;;;;;;15.15;8.55;;;;;;;;;;4218873;33;20192;-65
2021/08/30 01:22:40;;;;;;;19.10;7.93;;;;;;;;;;4221235;33;20215;-65
2021/08/30 01:25:07;;;;;;;21.08;8.10;;;;;;;;;;4233502;33;20093;-65
2021/08/30 01:27:33;;;;;;;16.92;7.68;;;;;;;;;;4220433;33;20508;-65
2021/08/30 01:30:05;;;;;;;13.70;7.03;;;;;;;;;;4220449;33;20106;-65
2021/08/30 01:32:38;;;;;;;11.30;6.60;;;;;;;;;;4233273;33;20113;-66
2021/08/30 01:35:09;;;;;;;12.23;6.22;;;;;;;;;;4233429;33;20148;-66
2021/08/30 01:37:37;;;;;;;11.02;6.00;;;;;;;;;;4220441;33;20109;-65
2021/08/30 01:40:03;;;;;;;15.85;6.70;;;;;;;;;;4220600;33;20137;-65
2021/08/30 01:42:29;;;;;;;14.18;6.95;;;;;;;;;;4233132;33;20532;-65
2021/08/30 01:44:55;;;;;;;17.40;6.97;;;;;;;;;;4208753;33;20131;-66
2021/08/30 01:47:21;;;;;;;16.60;6.85;;;;;;;;;;4208617;33;20188;-65
2021/08/30 01:49:49;;;;;;;13.23;6.15;;;;;;;;;;4208116;33;20121;-66
2021/08/30 01:52:15;;;;;;;14.63;6.60;;;;;;;;;;4219088;33;20181;-65
2021/08/30 01:54:42;;;;;;;12.27;6.30;;;;;;;;;;4218276;34;20513;-66
2021/08/30 01:57:08;;;;;;;14.50;7.68;;;;;;;;;;4206271;34;20129;-65
2021/08/30 02:02:18;;;;;;;23.75;7.07;;;;;;;;;;4219002;34;20112;-65
2021/08/30 02:04:44;;;;;;;17.30;8.18;;;;;;;;;;4206525;34;20097;-65
2021/08/30 02:07:10;;;;;;;26.17;7.57;;;;;;;;;;4206094;34;20136;-65
2021/08/30 02:09:36;;;;;;;19.02;8.15;;;;;;;;;;4219080;34;20145;-65
2021/08/30 02:12:02;;;;;;;25.67;8.02;;;;;;;;;;4219325;34;20212;-66
2021/08/30 02:14:28;;;;;;;31.27;9.43;;;;;;;;;;4218974;34;20502;-68
2021/08/30 02:16:55;;;;;;;25.55;8.48;;;;;;;;;;4218789;34;20613;-67
2021/08/30 02:19:43;;;;;;;32.95;10.20;;;;;;;;;;4208980;33;20517;-67
2021/08/30 02:22:15;;;;;;;20.70;7.82;;;;;;;;;;4220448;33;20100;-65
2021/08/30 02:24:46;;;;;;;25.35;8.75;;;;;;;;;;4220465;33;20216;-65
2021/08/30 02:27:20;;;;;;;26.87;8.70;;;;;;;;;;4220151;33;20112;-66
2021/08/30 02:30:06;;;;;;;26.10;8.77;;;;;;;;;;4232979;33;20109;-63
2021/08/30 02:32:33;;;;;;;29.58;8.23;;;;;;;;;;4232952;33;20615;-66
2021/08/30 02:35:00;;;;;;;18.17;7.90;;;;;;;;;;4219776;33;20120;-66
2021/08/30 02:37:31;;;;;;;25.35;8.57;;;;;;;;;;4219657;33;20111;-66
2021/08/30 02:39:57;;;;;;;20.90;8.02;;;;;;;;;;4208530;33;20188;-66
2021/08/30 02:42:23;;;;;;;26.30;8.00;;;;;;;;;;4219788;33;20191;-64
2021/08/30 02:44:49;;;;;;;31.40;8.45;;;;;;;;;;4208574;33;20137;-64
2021/08/30 02:47:15;;;;;;;19.85;8.10;;;;;;;;;;4219995;33;20096;-65
2021/08/30 02:49:42;;;;;;;25.37;8.57;;;;;;;;;;4219715;33;20133;-65
2021/08/30 02:52:09;;;;;;;20.10;7.97;;;;;;;;;;4232946;33;20116;-66
2021/08/30 02:54:35;;;;;;;22.30;7.87;;;;;;;;;;4219981;33;20272;-66
2021/08/30 02:57:03;;;;;;;15.75;7.82;;;;;;;;;;4219501;33;20120;-65
2021/08/30 02:59:29;;;;;;;23.98;7.60;;;;;;;;;;4232584;33;20211;-65
2021/08/30 03:01:56;;;;;;;20.95;7.70;;;;;;;;;;4219187;33;20568;-64
2021/08/30 03:04:21;;;;;;;17.45;6.90;;;;;;;;;;4219542;33;20092;-65
2021/08/30 03:06:47;;;;;;;16.90;7.10;;;;;;;;;;4219473;33;20176;-64
2021/08/30 03:09:13;;;;;;;14.48;7.22;;;;;;;;;;4232735;33;20144;-63
2021/08/30 03:11:39;;;;;;;12.85;6.80;;;;;;;;;;4219366;33;20135;-65
2021/08/30 03:14:05;;;;;;;13.15;6.57;;;;;;;;;;4219515;33;20492;-64
2021/08/30 03:16:31;;;;;;;17.20;6.87;;;;;;;;;;4232322;33;20505;-65
2021/08/30 03:18:57;;;;;;;16.90;7.60;;;;;;;;;;4207832;33;20144;-65
2021/08/30 03:21:24;;;;;;;22.13;5.72;;;;;;;;;;4207801;33;20164;-64
2021/08/30 03:23:50;;;;;;;42.70;7.85;;;;;;;;;;4219370;33;20219;-65
2021/08/30 03:26:16;;;;;;;17.08;5.78;;;;;;;;;;4207892;33;20125;-65
2021/08/30 03:28:42;;;;;;;17.12;6.47;;;;;;;;;;4207782;33;20200;-65
2021/08/30 03:31:08;;;;;;;21.08;6.47;;;;;;;;;;4218812;33;20139;-65
2021/08/30 03:33:34;;;;;;;26.95;6.15;;;;;;;;;;4217053;33;20537;-65
2021/08/30 03:36:00;;;;;;;22.52;5.68;;;;;;;;;;4217389;33;20125;-65
2021/08/30 03:38:26;;;;;;;16.27;5.60;;;;;;;;;;4217144;33;20538;-65
2021/08/30 03:40:51;;;;;;;16.33;5.68;;;;;;;;;;4217998;33;20144;-65
2021/08/30 03:43:18;;;;;;;12.65;5.85;;;;;;;;;;4232414;33;20117;-64
2021/08/30 03:45:45;;;;;;;21.87;6.47;;;;;;;;;;4219385;33;20453;-64
2021/08/30 03:48:11;;;;;;;21.30;7.30;;;;;;;;;;4207476;33;20192;-65
2021/08/30 03:50:37;;;;;;;20.52;6.97;;;;;;;;;;4219046;33;20148;-66
2021/08/30 03:53:03;;;;;;;24.40;6.97;;;;;;;;;;4219170;33;20123;-65
2021/08/30 03:55:29;;;;;;;20.55;7.62;;;;;;;;;;4207773;33;20096;-65
2021/08/30 03:57:57;;;;;;;24.85;7.10;;;;;;;;;;4218846;33;20105;-65
2021/08/30 04:00:25;;;;;;;21.33;7.10;;;;;;;;;;4232032;33;20105;-64
2021/08/30 04:02:51;;;;;;;15.90;7.00;;;;;;;;;;4218926;33;20564;-64
2021/08/30 04:05:18;;;;;;;24.45;7.68;;;;;;;;;;4219331;33;20584;-64
2021/08/30 04:07:44;;;;;;;28.05;8.55;;;;;;;;;;4231978;33;20198;-65
2021/08/30 04:10:10;;;;;;;25.00;8.82;;;;;;;;;;4231750;33;20127;-65
2021/08/30 04:12:36;;;;;;;32.08;9.70;;;;;;;;;;4208088;33;20196;-66
2021/08/30 04:15:02;;;;;;;29.27;10.77;;;;;;;;;;4220980;33;20188;-67
2021/08/30 04:17:28;;;;;;;28.35;12.57;;;;;;;;;;4220865;33;20113;-66
2021/08/30 04:19:54;;;;;;;31.15;11.85;;;;;;;;;;4234026;33;20128;-66
2021/08/30 04:22:20;;;;;;;35.63;12.82;;;;;;;;;;4233829;33;20209;-67
2021/08/30 04:24:46;;;;;;;32.15;14.02;;;;;;;;;;4234206;33;20140;-67
2021/08/30 04:27:12;;;;;;;32.65;13.27;;;;;;;;;;4220902;33;20185;-67
2021/08/30 04:29:38;;;;;;;30.73;13.98;;;;;;;;;;4233916;33;20223;-67
2021/08/30 04:32:07;;;;;;;30.10;14.05;;;;;;;;;;4233729;33;20216;-67
2021/08/30 04:34:34;;;;;;;32.03;12.18;;;;;;;;;;4233832;33;20119;-67
2021/08/30 04:37:00;;;;;;;42.58;13.07;;;;;;;;;;4233711;33;20094;-67
2021/08/30 04:39:26;;;;;;;27.00;12.55;;;;;;;;;;4233990;33;20127;-67
2021/08/30 04:41:52;;;;;;;31.92;11.98;;;;;;;;;;4233966;33;20105;-67
2021/08/30 04:44:18;;;;;;;30.10;13.02;;;;;;;;;;4233905;33;20207;-67
2021/08/30 04:46:44;;;;;;;33.65;12.65;;;;;;;;;;4233642;33;20094;-66
2021/08/30 04:49:09;;;;;;;34.35;13.25;;;;;;;;;;4234057;33;20120;-66
2021/08/30 04:51:35;;;;;;;34.53;15.30;;;;;;;;;;4233723;33;20208;-66
2021/08/30 04:54:01;;;;;;;35.28;15.32;;;;;;;;;;4233639;33;20136;-66
2021/08/30 04:56:27;;;;;;;37.78;15.70;;;;;;;;;;4233781;33;20473;-66
2021/08/30 04:58:53;;;;;;;33.50;14.43;;;;;;;;;;4220659;33;20134;-66
2021/08/30 05:01:19;;;;;;;34.92;15.18;;;;;;;;;;4233743;33;20125;-67
2021/08/30 05:03:45;;;;;;;27.15;13.38;;;;;;;;;;4233525;33;20179;-67
2021/08/30 05:06:11;;;;;;;36.85;13.52;;;;;;;;;;4220601;33;20188;-67
2021/08/30 05:08:37;;;;;;;33.08;13.98;;;;;;;;;;4233603;33;20513;-67
2021/08/30 05:11:03;;;;;;;30.12;14.05;;;;;;;;;;4233517;33;20140;-67
2021/08/30 05:13:29;;;;;;;26.52;13.82;;;;;;;;;;4233645;33;20476;-67
2021/08/30 05:15:55;;;;;;;23.92;10.93;;;;;;;;;;4233490;33;20117;-67
2021/08/30 05:18:21;;;;;;;29.67;12.05;;;;;;;;;;4233493;33;20129;-67
2021/08/30 05:20:49;;;;;;;25.73;12.00;;;;;;;;;;4233486;33;20136;-67
2021/08/30 05:23:16;;;;;;;28.48;10.95;;;;;;;;;;4233373;33;20117;-67
2021/08/30 05:25:42;;;;;;;21.00;11.50;;;;;;;;;;4232671;33;20096;-67
2021/08/30 05:28:09;;;;;;;23.08;11.45;;;;;;;;;;4233580;33;20224;-67
2021/08/30 05:30:36;;;;;;;29.58;9.82;;;;;;;;;;4233666;33;20189;-67
2021/08/30 05:33:03;;;;;;;22.70;10.15;;;;;;;;;;4233270;33;20121;-67
2021/08/30 05:35:29;;;;;;;26.35;9.57;;;;;;;;;;4233289;33;20092;-67
2021/08/30 05:37:55;;;;;;;22.75;8.25;;;;;;;;;;4233202;33;20120;-67
2021/08/30 05:40:21;;;;;;;13.80;7.03;;;;;;;;;;4233376;33;20128;-67
2021/08/30 05:42:47;;;;;;;18.37;7.60;;;;;;;;;;4233351;33;20105;-66
2021/08/30 05:45:12;;;;;;;20.40;8.07;;;;;;;;;;4233265;33;20136;-67
2021/08/30 05:47:39;;;;;;;19.02;8.27;;;;;;;;;;4220431;33;20191;-67
2021/08/30 05:50:05;;;;;;;19.60;8.50;;;;;;;;;;4233233;33;20124;-67
2021/08/30 05:52:31;;;;;;;24.70;8.98;;;;;;;;;;4233054;33;20132;-68
2021/08/30 05:54:57;;;;;;;18.37;8.02;;;;;;;;;;4233108;33;20140;-67
2021/08/30 05:57:23;;;;;;;16.50;6.93;;;;;;;;;;4233027;33;20481;-68
2021/08/30 05:59:49;;;;;;;13.68;7.10;;;;;;;;;;4233105;33;20110;-67
2021/08/30 06:02:15;;;;;;;14.85;6.15;;;;;;;;;;4232820;33;20520;-67
2021/08/30 06:04:40;;;;;;;15.27;5.97;;;;;;;;;;4220045;33;20133;-67
2021/08/30 06:07:06;;;;;;;19.77;6.47;;;;;;;;;;4232963;33;20464;-67
2021/08/30 06:09:32;;;;;;;17.92;7.97;;;;;;;;;;4220173;33;20137;-67
2021/08/30 06:11:58;;;;;;;14.13;5.97;;;;;;;;;;4232893;33;20133;-66
2021/08/30 06:14:24;;;;;;;18.12;5.87;;;;;;;;;;4232854;33;20502;-68
2021/08/30 06:16:50;;;;;;;17.58;6.57;;;;;;;;;;4232684;33;20652;-67
2021/08/30 06:19:16;;;;;;;14.68;5.70;;;;;;;;;;4233190;33;20437;-68
2021/08/30 06:21:42;;;;;;;14.68;6.43;;;;;;;;;;4232852;33;20147;-67
2021/08/30 06:24:08;;;;;;;14.32;6.87;;;;;;;;;;4232865;33;20187;-66
2021/08/30 06:26:36;;;;;;;13.00;6.00;;;;;;;;;;4232787;33;20536;-66
2021/08/30 06:29:03;;;;;;;14.20;6.30;;;;;;;;;;4232929;33;20197;-67
2021/08/30 06:31:30;;;;;;;15.32;6.50;;;;;;;;;;4232468;33;20129;-66
2021/08/30 06:33:56;;;;;;;14.52;6.57;;;;;;;;;;4232944;33;20128;-67
2021/08/30 06:36:23;;;;;;;14.35;6.97;;;;;;;;;;4232252;33;20139;-66
2021/08/30 06:38:48;;;;;;;16.65;6.80;;;;;;;;;;4232704;33;20101;-65
2021/08/30 06:41:14;;;;;;;14.82;6.50;;;;;;;;;;4232915;33;20117;-66
2021/08/30 06:43:40;;;;;;;10.75;5.85;;;;;;;;;;4232685;33;20112;-68
2021/08/30 06:46:06;;;;;;;16.67;6.43;;;;;;;;;;4232648;33;20588;-68
2021/08/30 06:48:32;;;;;;;15.18;5.75;;;;;;;;;;4232552;33;20137;-68
2021/08/30 06:50:58;;;;;;;12.77;5.93;;;;;;;;;;4232740;33;20205;-66
2021/08/30 06:53:24;;;;;;;18.05;7.22;;;;;;;;;;4219500;33;20101;-67
2021/08/30 06:55:50;;;;;;;11.77;6.25;;;;;;;;;;4232524;33;20139;-66
2021/08/30 06:58:16;;;;;;;17.62;5.85;;;;;;;;;;4232573;33;20089;-66
2021/08/30 07:00:42;;;;;;;14.52;7.00;;;;;;;;;;4232438;33;20524;-67
2021/08/30 07:03:08;;;;;;;14.48;6.18;;;;;;;;;;4232381;33;20686;-67
2021/08/30 07:05:35;;;;;;;9.57;6.30;;;;;;;;;;4232280;33;20485;-67
2021/08/30 07:08:00;;;;;;;14.77;7.55;;;;;;;;;;4232486;33;20200;-67
2021/08/30 07:10:26;;;;;;;12.20;6.87;;;;;;;;;;4232666;33;20092;-67
2021/08/30 07:12:52;;;;;;;11.15;6.72;;;;;;;;;;4232374;33;20128;-67
2021/08/30 07:15:18;;;;;;;12.45;5.85;;;;;;;;;;4232260;33;20144;-67
2021/08/30 07:17:44;;;;;;;14.82;6.78;;;;;;;;;;4232127;33;20135;-66
2021/08/30 07:20:11;;;;;;;15.93;7.28;;;;;;;;;;4232315;33;20124;-66
2021/08/30 07:22:36;;;;;;;15.48;6.35;;;;;;;;;;4232229;33;20128;-67
2021/08/30 07:25:03;;;;;;;13.18;6.37;;;;;;;;;;4232315;33;20117;-67
2021/08/30 07:27:29;;;;;;;10.85;5.72;;;;;;;;;;4232155;33;20544;-66
2021/08/30 07:29:55;;;;;;;10.90;6.00;;;;;;;;;;4231988;33;20564;-67
2021/08/30 07:32:21;;;;;;;8.88;5.78;;;;;;;;;;4232143;33;20217;-66
2021/08/30 07:34:46;;;;;;;12.90;5.62;;;;;;;;;;4232317;33;20188;-66
2021/08/30 07:37:13;;;;;;;14.05;6.43;;;;;;;;;;4232227;33;20117;-66
2021/08/30 07:39:38;;;;;;;11.88;6.65;;;;;;;;;;4232136;33;20129;-67
2021/08/30 07:42:04;;;;;;;13.57;5.37;;;;;;;;;;4231927;33;20148;-67
2021/08/30 07:44:30;;;;;;;9.75;4.15;;;;;;;;;;4231908;33;20148;-68
2021/08/30 07:46:56;;;;;;;13.55;7.05;;;;;;;;;;4231945;33;20544;-68
2021/08/30 07:49:22;;;;;;;9.05;5.25;;;;;;;;;;4234359;33;20163;-68
2021/08/30 07:51:48;;;;;;;9.52;6.40;;;;;;;;;;4234331;33;20124;-68
2021/08/30 07:54:14;;;;;;;14.98;6.32;;;;;;;;;;4234309;33;20136;-69
2021/08/30 07:56:41;;;;;;;25.35;8.20;;;;;;;;;;4234148;33;20107;-68
2021/08/30 07:59:08;;;;;;;8.02;4.25;;;;;;;;;;4234275;33;20120;-67
2021/08/30 08:01:34;;;;;;;12.88;6.47;;;;;;;;;;4233861;33;20130;-67
2021/08/30 08:04:00;;;;;;;9.45;5.30;;;;;;;;;;4234003;33;20121;-67
2021/08/30 08:06:26;;;;;;;8.77;5.03;;;;;;;;;;4233874;33;20180;-69
2021/08/30 08:08:52;;;;;;;13.02;5.95;;;;;;;;;;4233976;33;20133;-67
2021/08/30 08:11:18;;;;;;;8.30;3.85;;;;;;;;;;4234166;33;20262;-66
2021/08/30 08:13:44;;;;;;;13.23;6.10;;;;;;;;;;4233909;33;20139;-67
2021/08/30 08:16:10;;;;;;;9.38;4.70;;;;;;;;;;4233796;33;20113;-67
2021/08/30 08:18:36;;;;;;;7.70;5.50;;;;;;;;;;4233766;33;20125;-67
2021/08/30 08:21:04;;;;;;;9.15;5.32;;;;;;;;;;4233798;33;20124;-67
2021/08/30 08:23:32;;;;;;;8.75;5.55;;;;;;;;;;4233778;33;20517;-67
2021/08/30 08:25:58;;;;;;;14.50;5.35;;;;;;;;;;4220974;33;20149;-67
2021/08/30 08:28:25;;;;;;;10.43;6.37;;;;;;;;;;4234133;33;20128;-67
2021/08/30 08:30:51;;;;;;;9.77;5.20;;;;;;;;;;4221060;33;20117;-67
2021/08/30 08:33:17;;;;;;;15.27;5.40;;;;;;;;;;4233789;33;20460;-67
2021/08/30 08:35:43;;;;;;;11.95;6.53;;;;;;;;;;4233766;33;20137;-68
2021/08/30 08:38:10;;;;;;;11.60;6.87;;;;;;;;;;4233807;33;20124;-67
2021/08/30 08:40:36;;;;;;;9.32;5.93;;;;;;;;;;4233855;33;20197;-67
2021/08/30 08:43:02;;;;;;;8.90;5.65;;;;;;;;;;4220736;33;20131;-67
2021/08/30 08:45:28;;;;;;;8.25;4.78;;;;;;;;;;4233652;33;20304;-67
2021/08/30 08:47:54;;;;;;;10.65;5.40;;;;;;;;;;4233747;33;20089;-66
2021/08/30 08:50:22;;;;;;;14.27;5.22;;;;;;;;;;4218681;33;20098;-67
2021/08/30 08:53:24;;;;;;;12.80;5.60;;;;;;;;;;4224143;33;20701;-67
2021/08/30 08:55:49;;;;;;;15.63;4.78;;;;;;;;;;4232600;33;20124;-67
2021/08/30 08:58:20;;;;;;;15.45;6.75;;;;;;;;;;4233286;33;20525;-66
2021/08/30 09:01:00;;;;;;;10.20;5.12;;;;;;;;;;4233329;33;20093;-66
2021/08/30 09:03:26;;;;;;;8.93;5.28;;;;;;;;;;4233573;33;20112;-67
2021/08/30 09:06:03;;;;;;;14.95;5.35;;;;;;;;;;4232721;33;20215;-67
2021/08/30 09:08:35;;;;;;;8.02;3.97;;;;;;;;;;4233316;33;20192;-66
2021/08/30 09:11:01;;;;;;;11.27;5.12;;;;;;;;;;4233712;33;20125;-66
2021/08/30 09:13:30;;;;;;;13.05;5.30;;;;;;;;;;4233203;33;20474;-67
2021/08/30 09:15:57;;;;;;;10.70;5.65;;;;;;;;;;4233391;33;20189;-66
2021/08/30 09:18:30;;;;;;;13.75;6.65;;;;;;;;;;4233310;33;20542;-67
2021/08/30 09:20:57;;;;;;;12.20;5.70;;;;;;;;;;4233209;33;20105;-67
2021/08/30 09:23:27;;;;;;;12.05;5.82;;;;;;;;;;4233178;33;20108;-67
2021/08/30 09:25:58;;;;;;;13.52;5.60;;;;;;;;;;4233315;33;20094;-67
2021/08/30 09:28:29;;;;;;;10.90;5.07;;;;;;;;;;4220718;33;20139;-66
2021/08/30 09:30:57;;;;;;;10.02;5.07;;;;;;;;;;4233511;33;20102;-66
2021/08/30 09:33:23;;;;;;;8.80;5.55;;;;;;;;;;4233096;33;20116;-66
2021/08/30 09:35:56;;;;;;;7.18;4.37;;;;;;;;;;4220323;33;20247;-67
2021/08/30 09:38:23;;;;;;;9.10;4.97;;;;;;;;;;4233282;33;20125;-66
2021/08/30 09:40:49;;;;;;;13.52;5.70;;;;;;;;;;4220196;33;20140;-67
2021/08/30 09:43:19;;;;;;;8.88;4.87;;;;;;;;;;4220001;33;20131;-66
2021/08/30 09:45:45;;;;;;;11.48;5.97;;;;;;;;;;4233061;33;20109;-67
2021/08/30 09:48:14;;;;;;;7.30;4.70;;;;;;;;;;4233150;33;20289;-67
2021/08/30 09:50:43;;;;;;;14.13;6.00;;;;;;;;;;4220409;33;20113;-69
2021/08/30 09:53:09;;;;;;;11.60;6.20;;;;;;;;;;4233028;33;20100;-67
2021/08/30 09:55:36;;;;;;;9.45;5.60;;;;;;;;;;4233053;33;20216;-67
2021/08/30 09:58:02;;;;;;;12.07;5.80;;;;;;;;;;4232910;33;20129;-67
2021/08/30 10:00:29;;;;;;;7.43;3.85;;;;;;;;;;4233190;33;20162;-67
2021/08/30 10:02:58;;;;;;;9.48;4.87;;;;;;;;;;4220105;33;20096;-67
2021/08/30 10:05:25;;;;;;;6.75;3.80;;;;;;;;;;4233150;33;20101;-67
2021/08/30 10:07:53;;;;;;;10.82;5.10;;;;;;;;;;4232782;33;20556;-67
2021/08/30 10:10:20;;;;;;;8.20;4.85;;;;;;;;;;4208189;33;20453;-67
2021/08/30 10:12:46;;;;;;;9.27;5.03;;;;;;;;;;4232716;33;20105;-67
2021/08/30 10:15:12;;;;;;;9.10;5.37;;;;;;;;;;4208057;33;20256;-68
2021/08/30 10:17:44;;;;;;;9.73;5.22;;;;;;;;;;4219534;33;20125;-67
2021/08/30 10:20:18;;;;;;;11.75;4.93;;;;;;;;;;4232766;33;20111;-66
2021/08/30 10:23:14;;;;;;;8.20;5.35;;;;;;;;;;4219642;33;20144;-67
2021/08/30 10:25:41;;;;;;;10.82;5.12;;;;;;;;;;4208064;33;20128;-68
2021/08/30 10:28:11;;;;;;;9.45;5.20;;;;;;;;;;4232682;33;20199;-68
2021/08/30 10:30:38;;;;;;;8.60;4.85;;;;;;;;;;4232886;33;20537;-67
2021/08/30 10:33:08;;;;;;;9.00;4.32;;;;;;;;;;4219547;33;20116;-67
2021/08/30 10:35:39;;;;;;;8.30;4.85;;;;;;;;;;4232773;33;20469;-66
2021/08/30 10:38:16;;;;;;;11.32;3.75;;;;;;;;;;4232585;33;20147;-67
2021/08/30 10:40:42;;;;;;;8.70;5.15;;;;;;;;;;4232688;33;20116;-68
2021/08/30 10:43:14;;;;;;;6.60;4.20;;;;;;;;;;4232545;33;20097;-68
2021/08/30 10:45:56;;;;;;;10.05;4.43;;;;;;;;;;4232564;33;20124;-67
2021/08/30 10:48:31;;;;;;;8.35;4.57;;;;;;;;;;4232531;33;20107;-67
2021/08/30 10:50:59;;;;;;;6.85;3.53;;;;;;;;;;4232816;33;20118;-67
2021/08/30 10:53:25;;;;;;;10.57;4.75;;;;;;;;;;4232730;33;20144;-67
2021/08/30 10:55:55;;;;;;;7.12;3.72;;;;;;;;;;4232607;33;20104;-68
2021/08/30 10:58:26;;;;;;;7.85;4.62;;;;;;;;;;4232293;33;20117;-69
2021/08/30 11:00:53;;;;;;;7.90;5.37;;;;;;;;;;4219843;33;20132;-70
2021/08/30 11:03:26;;;;;;;11.68;4.70;;;;;;;;;;4232271;33;20112;-67
2021/08/30 11:06:09;;;;;;;10.02;5.07;;;;;;;;;;4232475;33;20120;-68
2021/08/30 11:08:36;;;;;;;7.35;3.70;;;;;;;;;;4232335;33;20089;-68
2021/08/30 11:11:18;;;;;;;7.72;4.50;;;;;;;;;;4232154;33;20105;-68
2021/08/30 11:14:02;;;;;;;8.00;3.33;;;;;;;;;;4232242;33;20113;-68
2021/08/30 11:16:28;;;;;;;5.62;2.78;;;;;;;;;;4208401;33;20146;-68
2021/08/30 11:18:58;;;;;;;10.73;5.32;;;;;;;;;;4232344;33;20674;-68
2021/08/30 11:21:37;;;;;;;15.30;4.87;;;;;;;;;;4232367;33;20086;-70
2021/08/30 11:24:04;;;;;;;9.07;3.70;;;;;;;;;;4234315;33;20128;-69
2021/08/30 11:26:30;;;;;;;10.82;5.40;;;;;;;;;;4234504;33;20085;-69
2021/08/30 11:29:06;;;;;;;10.00;4.35;;;;;;;;;;4234494;33;20537;-69
2021/08/30 11:31:39;;;;;;;7.55;4.72;;;;;;;;;;4234310;33;20173;-67
2021/08/30 11:34:09;;;;;;;7.15;3.37;;;;;;;;;;4234256;33;20101;-68
2021/08/30 11:36:45;;;;;;;7.57;4.60;;;;;;;;;;4221432;33;20145;-69
2021/08/30 11:39:14;;;;;;;9.88;4.07;;;;;;;;;;4234334;33;20501;-69
2021/08/30 11:41:42;;;;;;;8.05;3.22;;;;;;;;;;4221462;33;20208;-68
2021/08/30 11:44:08;;;;;;;9.18;5.07;;;;;;;;;;4221347;33;20212;-69
2021/08/30 11:46:45;;;;;;;11.30;4.50;;;;;;;;;;4233965;33;20242;-69
2021/08/30 11:49:11;;;;;;;12.65;5.55;;;;;;;;;;4221156;33;20216;-70
2021/08/30 11:51:41;;;;;;;19.33;5.35;;;;;;;;;;4234342;33;20141;-67
2021/08/30 11:54:18;;;;;;;9.32;4.75;;;;;;;;;;4234248;33;20533;-66
2021/08/30 11:56:52;;;;;;;8.27;5.50;;;;;;;;;;4234205;33;20188;-66
2021/08/30 11:59:29;;;;;;;6.10;3.80;;;;;;;;;;4234201;33;20196;-68
2021/08/30 12:01:55;;;;;;;8.40;4.90;;;;;;;;;;4234059;33;20120;-67
2021/08/30 12:04:21;;;;;;;8.75;5.03;;;;;;;;;;4234173;33;20102;-67
2021/08/30 12:06:51;;;;;;;11.90;5.60;;;;;;;;;;4234133;33;20089;-67
2021/08/30 12:09:17;;;;;;;9.70;5.03;;;;;;;;;;4234051;33;20133;-67
2021/08/30 12:11:52;;;;;;;7.25;4.75;;;;;;;;;;4233822;33;20740;-67
2021/08/30 12:14:20;;;;;;;8.10;3.95;;;;;;;;;;4233835;33;20116;-67
2021/08/30 12:16:46;;;;;;;9.73;4.60;;;;;;;;;;4233719;33;20120;-67
2021/08/30 12:19:12;;;;;;;10.75;3.67;;;;;;;;;;4234037;33;20097;-67
2021/08/30 12:21:40;;;;;;;9.35;4.18;;;;;;;;;;4220773;33;20133;-68
2021/08/30 12:24:07;;;;;;;7.78;4.95;;;;;;;;;;4197899;33;20182;-66
2021/08/30 12:26:38;;;;;;;9.13;4.80;;;;;;;;;;4220991;33;20105;-66
2021/08/30 12:29:04;;;;;;;8.80;4.65;;;;;;;;;;4234065;33;20441;-68
2021/08/30 12:31:32;;;;;;;7.65;4.30;;;;;;;;;;4233863;33;20528;-69
2021/08/30 12:34:12;;;;;;;8.48;4.55;;;;;;;;;;4233526;33;20093;-69
2021/08/30 12:36:38;;;;;;;10.25;4.72;;;;;;;;;;4233653;33;20105;-68
2021/08/30 12:39:05;;;;;;;13.07;5.28;;;;;;;;;;4233877;33;20461;-68
2021/08/30 12:41:31;;;;;;;7.68;4.22;;;;;;;;;;4233497;33;20124;-68
2021/08/30 12:43:57;;;;;;;9.43;4.60;;;;;;;;;;4233661;33;20120;-68
2021/08/30 12:46:23;;;;;;;6.15;3.95;;;;;;;;;;4233589;33;20592;-68
2021/08/30 12:48:49;;;;;;;14.95;4.10;;;;;;;;;;4221128;33;20101;-69
2021/08/30 12:51:15;;;;;;;10.10;4.55;;;;;;;;;;4233706;33;20145;-71
2021/08/30 12:53:41;;;;;;;8.75;5.47;;;;;;;;;;4233792;33;20297;-68
2021/08/30 12:56:07;;;;;;;7.50;4.37;;;;;;;;;;4233646;33;20089;-68
2021/08/30 12:58:33;;;;;;;6.75;4.10;;;;;;;;;;4233821;33;20437;-68
2021/08/30 13:00:59;;;;;;;7.87;4.37;;;;;;;;;;4233609;33;20106;-68
2021/08/30 13:03:25;;;;;;;8.05;4.43;;;;;;;;;;4220839;33;20124;-68
2021/08/30 13:05:51;;;;;;;8.45;3.90;;;;;;;;;;4233652;33;20527;-67
2021/08/30 13:08:17;;;;;;;8.13;4.30;;;;;;;;;;4233878;33;20465;-68
2021/08/30 13:10:44;;;;;;;7.20;3.50;;;;;;;;;;4233513;33;20116;-68
2021/08/30 13:13:11;;;;;;;6.15;3.85;;;;;;;;;;4233554;33;20097;-68
2021/08/30 13:15:38;;;;;;;10.23;4.70;;;;;;;;;;4220572;33;20180;-68
2021/08/30 13:18:03;;;;;;;9.73;4.70;;;;;;;;;;4233397;33;20133;-68
2021/08/30 13:20:29;;;;;;;12.77;4.75;;;;;;;;;;4233541;33;20120;-67
2021/08/30 13:22:55;;;;;;;8.68;4.25;;;;;;;;;;4233584;33;20133;-67
2021/08/30 13:25:22;;;;;;;8.43;4.03;;;;;;;;;;4220669;33;20122;-68
2021/08/30 13:27:50;;;;;;;11.18;4.95;;;;;;;;;;4234125;33;20139;-68
2021/08/30 13:30:17;;;;;;;9.65;4.62;;;;;;;;;;4222326;33;20181;-68
2021/08/30 13:32:43;;;;;;;9.10;4.90;;;;;;;;;;4236365;33;20537;-68
2021/08/30 13:35:10;;;;;;;8.93;4.18;;;;;;;;;;4237917;33;20563;-68
2021/08/30 13:37:36;;;;;;;7.65;4.55;;;;;;;;;;4235961;33;20124;-68
2021/08/30 13:40:03;;;;;;;13.73;4.90;;;;;;;;;;4235168;33;20498;-68
2021/08/30 13:42:29;;;;;;;15.48;5.60;;;;;;;;;;4235201;33;20127;-68
2021/08/30 13:44:56;;;;;;;8.40;4.87;;;;;;;;;;4233718;33;20208;-68
2021/08/30 13:47:21;;;;;;;9.60;5.30;;;;;;;;;;4233345;33;20125;-68
2021/08/30 13:49:48;;;;;;;12.23;5.90;;;;;;;;;;4232988;33;20139;-70
2021/08/30 13:52:13;;;;;;;10.82;4.47;;;;;;;;;;4220547;33;20534;-69
2021/08/30 13:54:39;;;;;;;7.35;4.22;;;;;;;;;;4233479;33;20500;-68
2021/08/30 13:57:05;;;;;;;7.43;4.32;;;;;;;;;;4233271;33;20112;-68
2021/08/30 13:59:33;;;;;;;9.38;4.45;;;;;;;;;;4233383;33;20232;-65
2021/08/30 14:01:59;;;;;;;10.10;4.95;;;;;;;;;;4233761;33;20111;-68
2021/08/30 14:04:25;;;;;;;21.58;6.35;;;;;;;;;;4220032;33;20598;-69
2021/08/30 14:06:51;;;;;;;10.27;4.50;;;;;;;;;;4233009;33;20174;-68
2021/08/30 14:09:17;;;;;;;11.50;5.50;;;;;;;;;;4233076;33;20105;-68
2021/08/30 14:11:44;;;;;;;9.18;4.37;;;;;;;;;;4232867;33;20188;-68
2021/08/30 14:14:10;;;;;;;10.73;4.12;;;;;;;;;;4219595;33;20117;-69
2021/08/30 14:16:39;;;;;;;12.45;5.65;;;;;;;;;;4233043;33;20456;-69
2021/08/30 14:19:08;;;;;;;8.85;4.12;;;;;;;;;;4231811;33;20120;-70
2021/08/30 14:21:34;;;;;;;14.38;4.78;;;;;;;;;;4232599;33;20125;-70
2021/08/30 14:24:00;;;;;;;12.05;5.40;;;;;;;;;;4232924;33;20113;-69
2021/08/30 14:26:26;;;;;;;9.13;4.60;;;;;;;;;;4232850;33;20213;-68
2021/08/30 14:28:52;;;;;;;11.10;5.22;;;;;;;;;;4232821;33;20128;-68
2021/08/30 14:31:17;;;;;;;8.95;5.28;;;;;;;;;;4232520;33;20592;-68
2021/08/30 14:33:43;;;;;;;10.55;5.10;;;;;;;;;;4218942;33;20132;-68
2021/08/30 14:36:09;;;;;;;10.48;4.80;;;;;;;;;;4222124;33;20129;-68
2021/08/30 14:38:35;;;;;;;13.32;5.10;;;;;;;;;;4218545;34;20105;-68
2021/08/30 14:41:02;;;;;;;8.90;4.20;;;;;;;;;;4218559;34;20103;-68
2021/08/30 14:43:30;;;;;;;6.50;4.30;;;;;;;;;;4218591;34;20110;-68
2021/08/30 14:45:57;;;;;;;8.35;4.60;;;;;;;;;;4206128;34;20593;-68
2021/08/30 14:48:23;;;;;;;10.15;4.37;;;;;;;;;;4218897;34;20113;-72
2021/08/30 14:50:49;;;;;;;6.35;3.87;;;;;;;;;;4218843;34;20159;-71
2021/08/30 14:53:16;;;;;;;19.75;5.00;;;;;;;;;;4218289;34;20525;-71
2021/08/30 14:55:46;;;;;;;10.60;4.65;;;;;;;;;;4218488;34;20176;-71